Terminal Aerodrome Forecast
Issued by NWS Louisville, KY

Home | Current Version | Previous Version | Text Only | Print | Product List | Glossary On
Versions: 1 2 3 4 5 6 7 8 9 10 11 12 13 14 15 16 17 18 19 20
000
FTUS43 KLMK 240300 AAB
TAFSDF
TAF AMD
KSDF 240344Z 2404/2506 13006KT P6SM BKN015 BKN035
     FM241200 16010G17KT 3SM -SHRA VCTS OVC010CB
     FM241600 24016G25KT P6SM -SHRA BKN015
     FM250000 25015G20KT P6SM VCSH BKN025=

USA.gov is the U.S. government's official web portal to all federal, state and local government web resources and services.